sensor_id;sensor_type;location;lat;lon;timestamp;pressure;altitude;pressure_sealevel;temperature;humidity
72359;BME280;60317;48.880;-0.862;2023-04-28T00:01:22;99963.53;;;19.92;52.38
72359;BME280;60317;48.880;-0.862;2023-04-28T00:03:48;99966.94;;;19.94;52.34
72359;BME280;60317;48.880;-0.862;2023-04-28T00:06:15;99961.41;;;19.96;52.25
72359;BME280;60317;48.880;-0.862;2023-04-28T00:08:41;99966.75;;;19.96;52.25
72359;BME280;60317;48.880;-0.862;2023-04-28T00:11:10;99964.53;;;19.91;52.25
72359;BME280;60317;48.880;-0.862;2023-04-28T00:13:37;99957.47;;;19.81;52.68
72359;BME280;60317;48.880;-0.862;2023-04-28T00:16:04;99952.66;;;19.84;52.49
72359;BME280;60317;48.880;-0.862;2023-04-28T00:18:30;99956.75;;;19.88;52.43
72359;BME280;60317;48.880;-0.862;2023-04-28T00:20:57;99956.59;;;19.90;52.44
72359;BME280;60317;48.880;-0.862;2023-04-28T00:23:23;99956.47;;;19.91;52.49
72359;BME280;60317;48.880;-0.862;2023-04-28T00:25:50;99969.72;;;19.93;52.37
72359;BME280;60317;48.880;-0.862;2023-04-28T00:28:18;99973.13;;;19.95;52.33
72359;BME280;60317;48.880;-0.862;2023-04-28T00:30:59;99966.75;;;19.96;52.34
72359;BME280;60317;48.880;-0.862;2023-04-28T00:33:25;99964.09;;;19.96;52.20
72359;BME280;60317;48.880;-0.862;2023-04-28T00:35:58;99964.25;;;19.94;52.20
72359;BME280;60317;48.880;-0.862;2023-04-28T00:38:24;99956.34;;;19.83;52.66
72359;BME280;60317;48.880;-0.862;2023-04-28T00:40:51;99969.44;;;19.86;52.57
72359;BME280;60317;48.880;-0.862;2023-04-28T00:43:19;99967.31;;;19.90;52.44
72359;BME280;60317;48.880;-0.862;2023-04-28T00:45:45;99958.31;;;19.91;52.40
72359;BME280;60317;48.880;-0.862;2023-04-28T00:48:12;99958.16;;;19.92;52.34
72359;BME280;60317;48.880;-0.862;2023-04-28T00:50:39;99956.31;;;19.93;52.61
72359;BME280;60317;48.880;-0.862;2023-04-28T00:53:05;99949.84;;;19.95;52.49
72359;BME280;60317;48.880;-0.862;2023-04-28T00:55:34;99959.56;;;19.96;52.20
72359;BME280;60317;48.880;-0.862;2023-04-28T00:58:01;99955.91;;;19.97;52.39
72359;BME280;60317;48.880;-0.862;2023-04-28T01:00:29;99950.56;;;19.97;52.38
72359;BME280;60317;48.880;-0.862;2023-04-28T01:02:56;99946.88;;;19.89;52.36
72359;BME280;60317;48.880;-0.862;2023-04-28T01:05:24;99940.09;;;19.85;52.55
72359;BME280;60317;48.880;-0.862;2023-04-28T01:07:51;99949.44;;;19.90;52.66
72359;BME280;60317;48.880;-0.862;2023-04-28T01:10:17;99945.03;;;19.89;52.67
72359;BME280;60317;48.880;-0.862;2023-04-28T01:12:44;99959.72;;;19.95;52.48
72359;BME280;60317;48.880;-0.862;2023-04-28T01:15:16;99955.19;;;19.95;52.58
72359;BME280;60317;48.880;-0.862;2023-04-28T01:17:44;99959.44;;;19.98;52.45
72359;BME280;60317;48.880;-0.862;2023-04-28T01:20:11;99955.75;;;19.99;52.32
72359;BME280;60317;48.880;-0.862;2023-04-28T01:22:38;99955.75;;;19.99;52.47
72359;BME280;60317;48.880;-0.862;2023-04-28T01:25:05;99954.63;;;20.01;52.31
72359;BME280;60317;48.880;-0.862;2023-04-28T01:27:32;99958.31;;;19.91;52.71
72359;BME280;60317;48.880;-0.862;2023-04-28T01:29:59;99948.72;;;19.88;52.64
72359;BME280;60317;48.880;-0.862;2023-04-28T01:32:25;99951.97;;;19.92;52.61
72359;BME280;60317;48.880;-0.862;2023-04-28T01:34:52;99962.41;;;19.95;52.90
72359;BME280;60317;48.880;-0.862;2023-04-28T01:37:18;99946.16;;;19.96;52.65
72359;BME280;60317;48.880;-0.862;2023-04-28T01:39:45;99953.06;;;19.99;52.28
72359;BME280;60317;48.880;-0.862;2023-04-28T01:42:12;99944.19;;;19.98;52.38
72359;BME280;60317;48.880;-0.862;2023-04-28T01:44:39;99945.88;;;19.99;52.32
72359;BME280;60317;48.880;-0.862;2023-04-28T01:47:06;99954.63;;;20.01;52.40
72359;BME280;60317;48.880;-0.862;2023-04-28T01:49:32;99956.31;;;20.02;52.39
72359;BME280;60317;48.880;-0.862;2023-04-28T01:51:59;99955.47;;;19.92;52.61
72359;BME280;60317;48.880;-0.862;2023-04-28T01:54:25;99954.78;;;19.90;52.69
72359;BME280;60317;48.880;-0.862;2023-04-28T01:56:51;99951.97;;;19.92;52.46
72359;BME280;60317;48.880;-0.862;2023-04-28T01:59:19;99954.19;;;19.96;52.65
72359;BME280;60317;48.880;-0.862;2023-04-28T02:01:46;99955.91;;;19.97;52.54
72359;BME280;60317;48.880;-0.862;2023-04-28T02:04:12;99962.97;;;19.98;52.51
72359;BME280;60317;48.880;-0.862;2023-04-28T02:06:39;99958.28;;;20.00;52.37
72359;BME280;60317;48.880;-0.862;2023-04-28T02:09:06;99968.16;;;20.00;52.55
72359;BME280;60317;48.880;-0.862;2023-04-28T02:11:32;99965.22;;;20.03;52.40
72359;BME280;60317;48.880;-0.862;2023-04-28T02:13:59;99958.28;;;20.00;52.44
72359;BME280;60317;48.880;-0.862;2023-04-28T02:16:27;99955.75;;;19.89;52.69
72359;BME280;60317;48.880;-0.862;2023-04-28T02:18:53;99943.91;;;19.92;52.76
72359;BME280;60317;48.880;-0.862;2023-04-28T02:21:20;99944.47;;;19.95;52.61
72359;BME280;60317;48.880;-0.862;2023-04-28T02:23:46;99950.66;;;19.96;52.68
72359;BME280;60317;48.880;-0.862;2023-04-28T02:26:13;99953.06;;;19.99;52.63
72359;BME280;60317;48.880;-0.862;2023-04-28T02:28:39;99964.53;;;20.01;52.65
72359;BME280;60317;48.880;-0.862;2023-04-28T02:31:06;99966.06;;;20.03;52.34
72359;BME280;60317;48.880;-0.862;2023-04-28T02:33:35;99957.16;;;20.03;52.70
72359;BME280;60317;48.880;-0.862;2023-04-28T02:36:03;99960.69;;;20.03;52.50
72359;BME280;60317;48.880;-0.862;2023-04-28T02:38:30;99960.84;;;19.92;52.60
72359;BME280;60317;48.880;-0.862;2023-04-28T02:40:57;99961.97;;;19.90;52.73
72359;BME280;60317;48.880;-0.862;2023-04-28T02:43:23;99957.16;;;19.93;52.73
72359;BME280;60317;48.880;-0.862;2023-04-28T02:45:50;99950.66;;;19.96;52.54
72359;BME280;60317;48.880;-0.862;2023-04-28T02:48:17;99958.28;;;20.00;52.56
72359;BME280;60317;48.880;-0.862;2023-04-28T02:50:44;99960.84;;;20.02;52.65
72359;BME280;60317;48.880;-0.862;2023-04-28T02:53:11;99959.00;;;20.02;52.56
72359;BME280;60317;48.880;-0.862;2023-04-28T02:55:38;99956.31;;;20.02;52.44
72359;BME280;60317;48.880;-0.862;2023-04-28T02:58:04;99960.69;;;20.03;52.67
72359;BME280;60317;48.880;-0.862;2023-04-28T03:00:31;99958.28;;;20.00;52.37
72359;BME280;60317;48.880;-0.862;2023-04-28T03:02:57;99960.16;;;19.90;52.90
72359;BME280;60317;48.880;-0.862;2023-04-28T03:05:24;99958.72;;;19.96;52.75
72359;BME280;60317;48.880;-0.862;2023-04-28T03:07:52;99950.56;;;19.97;52.65
72359;BME280;60317;48.880;-0.862;2023-04-28T03:10:19;99953.06;;;19.99;52.66
72359;BME280;60317;48.880;-0.862;2023-04-28T03:12:45;99954.63;;;20.01;52.70
72359;BME280;60317;48.880;-0.862;2023-04-28T03:15:12;99948.28;;;20.02;52.49
72359;BME280;60317;48.880;-0.862;2023-04-28T03:17:39;99955.03;;;20.07;52.46
72359;BME280;60317;48.880;-0.862;2023-04-28T03:20:06;99949.84;;;20.05;52.53
72359;BME280;60317;48.880;-0.862;2023-04-28T03:22:33;99951.78;;;20.03;52.37
72359;BME280;60317;48.880;-0.862;2023-04-28T03:25:01;99950.97;;;19.93;52.63
72359;BME280;60317;48.880;-0.862;2023-04-28T03:27:28;99946.31;;;19.95;52.86
72359;BME280;60317;48.880;-0.862;2023-04-28T03:29:54;99941.63;;;19.97;52.67
72359;BME280;60317;48.880;-0.862;2023-04-28T03:32:21;99940.50;;;19.99;52.66
72359;BME280;60317;48.880;-0.862;2023-04-28T03:34:48;99938.53;;;20.01;52.53
72359;BME280;60317;48.880;-0.862;2023-04-28T03:37:14;99938.25;;;20.05;52.52
72359;BME280;60317;48.880;-0.862;2023-04-28T03:39:40;99931.06;;;20.05;52.34
72359;BME280;60317;48.880;-0.862;2023-04-28T03:42:08;99936.25;;;20.07;52.59
72359;BME280;60317;48.880;-0.862;2023-04-28T03:44:35;99933.56;;;20.07;52.35
72359;BME280;60317;48.880;-0.862;2023-04-28T03:47:01;99931.06;;;19.95;52.56
72359;BME280;60317;48.880;-0.862;2023-04-28T03:49:28;99927.66;;;19.93;52.71
72359;BME280;60317;48.880;-0.862;2023-04-28T03:51:54;99932.63;;;19.98;52.72
72359;BME280;60317;48.880;-0.862;2023-04-28T03:54:21;99937.69;;;20.01;52.72
72359;BME280;60317;48.880;-0.862;2023-04-28T03:56:47;99937.38;;;20.04;52.48
72359;BME280;60317;48.880;-0.862;2023-04-28T03:59:15;99931.91;;;20.06;52.48
72359;BME280;60317;48.880;-0.862;2023-04-28T04:01:42;99939.94;;;20.06;52.48
72359;BME280;60317;48.880;-0.862;2023-04-28T04:04:08;99934.41;;;20.07;52.61
72359;BME280;60317;48.880;-0.862;2023-04-28T04:06:35;99936.25;;;20.07;52.42
72359;BME280;60317;48.880;-0.862;2023-04-28T04:09:01;99937.97;;;19.98;52.72
72359;BME280;60317;48.880;-0.862;2023-04-28T04:11:28;99943.63;;;19.95;52.80
72359;BME280;60317;48.880;-0.862;2023-04-28T04:13:54;99945.88;;;19.99;52.66
72359;BME280;60317;48.880;-0.862;2023-04-28T04:16:22;99943.91;;;20.01;52.70
72359;BME280;60317;48.880;-0.862;2023-04-28T04:18:49;99945.59;;;20.02;52.62
72359;BME280;60317;48.880;-0.862;2023-04-28T04:21:15;99949.84;;;20.05;52.49
72359;BME280;60317;48.880;-0.862;2023-04-28T04:23:42;99948.00;;;20.06;52.62
72359;BME280;60317;48.880;-0.862;2023-04-28T04:26:08;99946.16;;;20.06;52.60
72359;BME280;60317;48.880;-0.862;2023-04-28T04:28:35;99958.44;;;20.09;52.38
72359;BME280;60317;48.880;-0.862;2023-04-28T04:31:01;99957.03;;;20.05;52.35
72359;BME280;60317;48.880;-0.862;2023-04-28T04:33:29;99957.16;;;19.93;52.87
72359;BME280;60317;48.880;-0.862;2023-04-28T04:35:56;99961.28;;;19.97;52.75
72359;BME280;60317;48.880;-0.862;2023-04-28T04:38:22;99963.53;;;20.02;52.74
72359;BME280;60317;48.880;-0.862;2023-04-28T04:40:49;99958.00;;;20.03;52.62
72359;BME280;60317;48.880;-0.862;2023-04-28T04:43:15;99961.41;;;20.06;52.61
72359;BME280;60317;48.880;-0.862;2023-04-28T04:45:42;99963.94;;;20.07;52.66
72359;BME280;60317;48.880;-0.862;2023-04-28T04:48:08;99968.16;;;20.10;52.46
72359;BME280;60317;48.880;-0.862;2023-04-28T04:50:36;99971.84;;;20.09;52.66
72359;BME280;60317;48.880;-0.862;2023-04-28T04:53:03;99975.25;;;20.01;52.50
72359;BME280;60317;48.880;-0.862;2023-04-28T04:55:29;99980.34;;;19.94;52.86
72359;BME280;60317;48.880;-0.862;2023-04-28T04:57:56;99979.06;;;19.98;52.80
72359;BME280;60317;48.880;-0.862;2023-04-28T05:00:22;99983.16;;;20.02;52.87
72359;BME280;60317;48.880;-0.862;2023-04-28T05:02:49;99991.91;;;20.05;52.69
72359;BME280;60317;48.880;-0.862;2023-04-28T05:05:16;99998.25;;;20.03;52.77
72359;BME280;60317;48.880;-0.862;2023-04-28T05:07:49;99993.59;;;20.06;52.86
72359;BME280;60317;48.880;-0.862;2023-04-28T05:10:16;99998.81;;;20.07;52.74
72359;BME280;60317;48.880;-0.862;2023-04-28T05:12:42;99994.28;;;20.08;52.70
72359;BME280;60317;48.880;-0.862;2023-04-28T05:15:09;99993.59;;;20.06;52.88
72359;BME280;60317;48.880;-0.862;2023-04-28T05:17:36;100008.84;;;19.95;52.93
72359;BME280;60317;48.880;-0.862;2023-04-28T05:20:03;100008.56;;;19.98;52.99
72359;BME280;60317;48.880;-0.862;2023-04-28T05:22:29;100014.63;;;20.00;52.75
72359;BME280;60317;48.880;-0.862;2023-04-28T05:24:57;100006.28;;;20.03;52.81
72359;BME280;60317;48.880;-0.862;2023-04-28T05:27:24;100002.63;;;20.05;52.81
72359;BME280;60317;48.880;-0.862;2023-04-28T05:29:50;100018.59;;;20.06;52.64
72359;BME280;60317;48.880;-0.862;2023-04-28T05:32:17;100025.63;;;20.07;52.79
72359;BME280;60317;48.880;-0.862;2023-04-28T05:34:43;100024.66;;;20.08;52.79
72359;BME280;60317;48.880;-0.862;2023-04-28T05:37:10;100030.88;;;20.09;52.67
72359;BME280;60317;48.880;-0.862;2023-04-28T05:39:36;100032.81;;;19.97;52.84
72359;BME280;60317;48.880;-0.862;2023-04-28T05:42:04;100029.31;;;19.96;53.02
72359;BME280;60317;48.880;-0.862;2023-04-28T05:44:31;100033.41;;;20.00;53.11
72359;BME280;60317;48.880;-0.862;2023-04-28T05:46:57;100033.28;;;20.02;52.94
72359;BME280;60317;48.880;-0.862;2023-04-28T05:49:24;100038.47;;;20.03;52.81
72359;BME280;60317;48.880;-0.862;2023-04-28T05:51:50;100044.56;;;20.06;52.67
72359;BME280;60317;48.880;-0.862;2023-04-28T05:54:17;100043.56;;;20.07;52.82
72359;BME280;60317;48.880;-0.862;2023-04-28T05:56:44;100045.13;;;20.09;52.53
72359;BME280;60317;48.880;-0.862;2023-04-28T05:59:12;100049.66;;;20.09;52.51
72359;BME280;60317;48.880;-0.862;2023-04-28T06:01:38;100049.78;;;19.97;52.93
72359;BME280;60317;48.880;-0.862;2023-04-28T06:04:05;100045.56;;;19.95;52.93
72359;BME280;60317;48.880;-0.862;2023-04-28T06:06:32;100049.38;;;20.02;52.79
72359;BME280;60317;48.880;-0.862;2023-04-28T06:08:58;100051.91;;;20.03;52.77
72359;BME280;60317;48.880;-0.862;2023-04-28T06:11:25;100056.13;;;20.06;52.69
72359;BME280;60317;48.880;-0.862;2023-04-28T06:13:52;100054.28;;;20.07;52.82
72359;BME280;60317;48.880;-0.862;2023-04-28T06:16:19;100059.38;;;20.10;52.68
72359;BME280;60317;48.880;-0.862;2023-04-28T06:18:46;100062.06;;;20.10;52.73
72359;BME280;60317;48.880;-0.862;2023-04-28T06:21:15;100059.81;;;20.05;52.65
72359;BME280;60317;48.880;-0.862;2023-04-28T06:23:42;100068.69;;;19.96;53.01
72359;BME280;60317;48.880;-0.862;2023-04-28T06:26:08;100063.91;;;19.99;52.93
72359;BME280;60317;48.880;-0.862;2023-04-28T06:28:35;100064.47;;;20.03;52.75
72359;BME280;60317;48.880;-0.862;2023-04-28T06:31:02;100068.00;;;20.03;52.82
72359;BME280;60317;48.880;-0.862;2023-04-28T06:33:30;100068.72;;;20.06;52.68
72359;BME280;60317;48.880;-0.862;2023-04-28T06:35:56;100076.75;;;20.06;52.78
72359;BME280;60317;48.880;-0.862;2023-04-28T06:38:22;100080.13;;;20.08;52.68
72359;BME280;60317;48.880;-0.862;2023-04-28T06:40:49;100071.25;;;20.07;52.71
72359;BME280;60317;48.880;-0.862;2023-04-28T06:43:15;100080.13;;;20.08;52.64
72359;BME280;60317;48.880;-0.862;2023-04-28T06:45:42;100076.63;;;19.97;53.04
72359;BME280;60317;48.880;-0.862;2023-04-28T06:48:09;100081.09;;;19.97;52.94
72359;BME280;60317;48.880;-0.862;2023-04-28T06:50:37;100074.50;;;20.01;52.74
72359;BME280;60317;48.880;-0.862;2023-04-28T06:53:03;100078.59;;;20.05;52.56
72359;BME280;60317;48.880;-0.862;2023-04-28T06:55:30;100088.06;;;20.09;52.54
72359;BME280;60317;48.880;-0.862;2023-04-28T06:57:56;100074.63;;;20.09;52.52
72359;BME280;60317;48.880;-0.862;2023-04-28T07:00:23;100086.09;;;20.11;52.37
72359;BME280;60317;48.880;-0.862;2023-04-28T07:02:50;100083.53;;;20.10;52.42
72359;BME280;60317;48.880;-0.862;2023-04-28T07:05:17;100078.16;;;20.10;52.33
72359;BME280;60317;48.880;-0.862;2023-04-28T07:07:46;100082.69;;;19.99;52.61
72359;BME280;60317;48.880;-0.862;2023-04-28T07:10:12;100088.19;;;19.98;52.70
72359;BME280;60317;48.880;-0.862;2023-04-28T07:12:39;100093.13;;;20.02;52.64
72359;BME280;60317;48.880;-0.862;2023-04-28T07:15:06;100092.84;;;20.06;52.49
72359;BME280;60317;48.880;-0.862;2023-04-28T07:17:35;100101.75;;;20.06;52.39
72359;BME280;60317;48.880;-0.862;2023-04-28T07:20:02;100105.00;;;20.10;52.44
72359;BME280;60317;48.880;-0.862;2023-04-28T07:22:29;100104.88;;;20.11;52.41
72359;BME280;60317;48.880;-0.862;2023-04-28T07:24:57;100111.09;;;20.12;52.36
72359;BME280;60317;48.880;-0.862;2023-04-28T07:27:24;100106.56;;;20.12;52.40
72359;BME280;60317;48.880;-0.862;2023-04-28T07:29:50;100109.22;;;20.02;52.40
72359;BME280;60317;48.880;-0.862;2023-04-28T07:32:16;100109.50;;;19.99;52.57
72359;BME280;60317;48.880;-0.862;2023-04-28T07:34:43;100117.13;;;20.04;52.69
72359;BME280;60317;48.880;-0.862;2023-04-28T07:37:10;100122.38;;;20.06;52.76
72359;BME280;60317;48.880;-0.862;2023-04-28T07:39:36;100124.91;;;20.07;52.66
72359;BME280;60317;48.880;-0.862;2023-04-28T07:42:04;100123.78;;;20.10;52.70
72359;BME280;60317;48.880;-0.862;2023-04-28T07:44:31;100128.16;;;20.11;52.69
72359;BME280;60317;48.880;-0.862;2023-04-28T07:46:58;100128.03;;;20.12;52.76
72359;BME280;60317;48.880;-0.862;2023-04-28T07:49:25;100136.47;;;20.08;52.53
72359;BME280;60317;48.880;-0.862;2023-04-28T07:51:51;100133.63;;;19.99;52.82
72359;BME280;60317;48.880;-0.862;2023-04-28T07:54:18;100125.47;;;20.01;52.91
72359;BME280;60317;48.880;-0.862;2023-04-28T07:56:45;100132.25;;;20.05;52.89
72359;BME280;60317;48.880;-0.862;2023-04-28T07:59:13;100139.31;;;20.06;52.85
72359;BME280;60317;48.880;-0.862;2023-04-28T08:01:40;100139.88;;;20.10;52.70
72359;BME280;60317;48.880;-0.862;2023-04-28T08:04:06;100142.56;;;20.10;52.63
72359;BME280;60317;48.880;-0.862;2023-04-28T08:06:34;100138.75;;;20.12;52.83
72359;BME280;60317;48.880;-0.862;2023-04-28T08:09:00;100136.06;;;20.12;52.63
72359;BME280;60317;48.880;-0.862;2023-04-28T08:11:28;100137.88;;;20.02;52.63
72359;BME280;60317;48.880;-0.862;2023-04-28T08:13:54;100144.38;;;19.99;52.83
72359;BME280;60317;48.880;-0.862;2023-04-28T08:16:22;100145.66;;;20.05;52.83
72359;BME280;60317;48.880;-0.862;2023-04-28T08:18:49;100139.16;;;20.08;52.85
72359;BME280;60317;48.880;-0.862;2023-04-28T08:21:15;100143.56;;;20.09;52.87
72359;BME280;60317;48.880;-0.862;2023-04-28T08:23:42;100150.59;;;20.10;52.93
72359;BME280;60317;48.880;-0.862;2023-04-28T08:26:08;100148.75;;;20.10;52.89
72359;BME280;60317;48.880;-0.862;2023-04-28T08:28:35;100152.16;;;20.12;52.83
72359;BME280;60317;48.880;-0.862;2023-04-28T08:31:01;100153.56;;;20.07;52.78
72359;BME280;60317;48.880;-0.862;2023-04-28T08:33:29;100162.16;;;20.00;53.29
72359;BME280;60317;48.880;-0.862;2023-04-28T08:35:56;100169.09;;;20.03;53.02
72359;BME280;60317;48.880;-0.862;2023-04-28T08:38:22;100165.28;;;20.06;53.02
72359;BME280;60317;48.880;-0.862;2023-04-28T08:40:49;100169.38;;;20.10;53.04
72359;BME280;60317;48.880;-0.862;2023-04-28T08:43:15;100156.69;;;20.12;52.89
72359;BME280;60317;48.880;-0.862;2023-04-28T08:45:43;100158.53;;;20.11;52.93
72359;BME280;60317;48.880;-0.862;2023-04-28T08:48:16;100174.47;;;20.13;52.93
72359;BME280;60317;48.880;-0.862;2023-04-28T08:50:49;100181.13;;;20.09;52.94
72359;BME280;60317;48.880;-0.862;2023-04-28T08:53:21;100171.34;;;19.98;53.25
72359;BME280;60317;48.880;-0.862;2023-04-28T08:55:50;100175.28;;;20.03;53.10
72359;BME280;60317;48.880;-0.862;2023-04-28T08:58:18;100166.13;;;20.06;52.91
72359;BME280;60317;48.880;-0.862;2023-04-28T09:00:44;100180.13;;;20.10;53.03
72359;BME280;60317;48.880;-0.862;2023-04-28T09:03:11;100184.50;;;20.11;53.10
72359;BME280;60317;48.880;-0.862;2023-04-28T09:05:37;100191.41;;;20.13;52.76
72359;BME280;60317;48.880;-0.862;2023-04-28T09:08:05;100200.31;;;20.14;52.92
72359;BME280;60317;48.880;-0.862;2023-04-28T09:10:32;100206.22;;;20.08;52.88
72359;BME280;60317;48.880;-0.862;2023-04-28T09:12:59;100202.28;;;20.02;53.04
72359;BME280;60317;48.880;-0.862;2023-04-28T09:15:27;100210.06;;;20.05;53.25
72359;BME280;60317;48.880;-0.862;2023-04-28T09:17:57;100212.31;;;20.10;53.07
72359;BME280;60317;48.880;-0.862;2023-04-28T09:20:25;100210.63;;;20.09;53.03
72359;BME280;60317;48.880;-0.862;2023-04-28T09:22:54;100217.41;;;20.13;53.07
72359;BME280;60317;48.880;-0.862;2023-04-28T09:25:22;100220.09;;;20.13;53.05
72359;BME280;60317;48.880;-0.862;2023-04-28T09:27:49;100228.00;;;20.14;53.15
72359;BME280;60317;48.880;-0.862;2023-04-28T09:30:15;100226.00;;;20.07;53.05
72359;BME280;60317;48.880;-0.862;2023-04-28T09:32:42;100237.25;;;20.00;53.31
72359;BME280;60317;48.880;-0.862;2023-04-28T09:35:09;100237.84;;;20.04;53.29
72359;BME280;60317;48.880;-0.862;2023-04-28T09:37:36;100233.94;;;20.08;53.14
72359;BME280;60317;48.880;-0.862;2023-04-28T09:40:05;100241.72;;;20.11;53.11
72359;BME280;60317;48.880;-0.862;2023-04-28T09:42:35;100245.09;;;20.13;52.98
72359;BME280;60317;48.880;-0.862;2023-04-28T09:45:03;100246.06;;;20.12;53.10
72359;BME280;60317;48.880;-0.862;2023-04-28T09:47:31;100243.25;;;20.14;53.19
72359;BME280;60317;48.880;-0.862;2023-04-28T09:49:59;100240.25;;;20.07;53.06
72359;BME280;60317;48.880;-0.862;2023-04-28T09:52:26;100251.41;;;20.02;53.39
72359;BME280;60317;48.880;-0.862;2023-04-28T09:54:54;100246.47;;;20.08;53.24
72359;BME280;60317;48.880;-0.862;2023-04-28T09:57:21;100241.81;;;20.10;53.17
72359;BME280;60317;48.880;-0.862;2023-04-28T09:59:50;100246.06;;;20.12;53.08
72359;BME280;60317;48.880;-0.862;2023-04-28T10:02:18;100245.81;;;20.15;53.05
72359;BME280;60317;48.880;-0.862;2023-04-28T10:05:05;100257.38;;;20.16;52.86
72359;BME280;60317;48.880;-0.862;2023-04-28T10:07:33;100263.88;;;20.13;53.07
72359;BME280;60317;48.880;-0.862;2023-04-28T10:10:00;100245.78;;;20.06;53.36
72359;BME280;60317;48.880;-0.862;2023-04-28T10:12:28;100252.81;;;20.07;53.32
72359;BME280;60317;48.880;-0.862;2023-04-28T10:14:57;100250.72;;;20.10;53.03
72359;BME280;60317;48.880;-0.862;2023-04-28T10:17:23;100251.28;;;20.14;52.99
72359;BME280;60317;48.880;-0.862;2023-04-28T10:19:52;100255.69;;;20.15;52.92
72359;BME280;60317;48.880;-0.862;2023-04-28T10:22:31;100249.06;;;20.19;52.86
72359;BME280;60317;48.880;-0.862;2023-04-28T10:25:17;100257.25;;;20.17;52.90
72359;BME280;60317;48.880;-0.862;2023-04-28T10:27:50;100255.13;;;20.11;52.98
72359;BME280;60317;48.880;-0.862;2023-04-28T10:30:20;100257.50;;;20.05;53.26
72359;BME280;60317;48.880;-0.862;2023-04-28T10:35:41;100253.41;;;20.10;52.97
72359;BME280;60317;48.880;-0.862;2023-04-28T10:38:09;100269.22;;;20.13;52.93
72359;BME280;60317;48.880;-0.862;2023-04-28T10:40:37;100267.38;;;20.14;53.04
72359;BME280;60317;48.880;-0.862;2023-04-28T10:43:04;100284.91;;;20.18;52.90
72359;BME280;60317;48.880;-0.862;2023-04-28T10:48:51;100285.03;;;20.07;53.02
72359;BME280;60317;48.880;-0.862;2023-04-28T10:51:28;100275.97;;;20.08;53.03
72359;BME280;60317;48.880;-0.862;2023-04-28T10:54:07;100274.88;;;20.10;52.90
72359;BME280;60317;48.880;-0.862;2023-04-28T10:56:33;100267.38;;;20.14;53.03
72359;BME280;60317;48.880;-0.862;2023-04-28T10:59:24;100261.06;;;20.15;52.93
72359;BME280;60317;48.880;-0.862;2023-04-28T11:01:50;100258.22;;;20.16;52.90
72359;BME280;60317;48.880;-0.862;2023-04-28T11:04:18;100263.44;;;20.18;52.96
72359;BME280;60317;48.880;-0.862;2023-04-28T11:06:46;100275.28;;;20.06;53.01
72359;BME280;60317;48.880;-0.862;2023-04-28T11:12:06;100289.00;;;20.12;52.90
72359;BME280;60317;48.880;-0.862;2023-04-28T11:14:33;100279.84;;;20.15;52.93
72359;BME280;60317;48.880;-0.862;2023-04-28T11:17:01;100292.69;;;20.21;52.98
72359;BME280;60317;48.880;-0.862;2023-04-28T11:19:31;100279.44;;;20.19;52.75
72359;BME280;60317;48.880;-0.862;2023-04-28T11:21:59;100292.69;;;20.21;52.61
72359;BME280;60317;48.880;-0.862;2023-04-28T11:24:28;100289.84;;;20.13;52.66
72359;BME280;60317;48.880;-0.862;2023-04-28T11:26:55;100286.72;;;20.08;53.22
72359;BME280;60317;48.880;-0.862;2023-04-28T11:29:30;100290.84;;;20.12;52.97
72359;BME280;60317;48.880;-0.862;2023-04-28T11:31:56;100291.53;;;20.14;52.87
72359;BME280;60317;48.880;-0.862;2023-04-28T11:34:23;100288.75;;;20.15;52.73
72359;BME280;60317;48.880;-0.862;2023-04-28T11:36:51;100287.47;;;20.19;52.66
72359;BME280;60317;48.880;-0.862;2023-04-28T11:39:25;100291.00;;;20.20;52.36
72359;BME280;60317;48.880;-0.862;2023-04-28T11:41:52;100272.06;;;20.21;52.63
72359;BME280;60317;48.880;-0.862;2023-04-28T11:44:20;100280.81;;;20.14;52.99
72359;BME280;60317;48.880;-0.862;2023-04-28T11:46:48;100280.97;;;20.12;52.58
72359;BME280;60317;48.880;-0.862;2023-04-28T11:49:15;100286.06;;;20.15;52.76
72359;BME280;60317;48.880;-0.862;2023-04-28T11:51:42;100282.22;;;20.18;52.66
72359;BME280;60317;48.880;-0.862;2023-04-28T11:54:10;100289.16;;;20.20;52.84
72359;BME280;60317;48.880;-0.862;2023-04-28T11:56:38;100280.13;;;20.21;52.58
72359;BME280;60317;48.880;-0.862;2023-04-28T11:59:07;100286.38;;;20.22;52.62
72359;BME280;60317;48.880;-0.862;2023-04-28T12:01:34;100298.75;;;20.13;52.64
72359;BME280;60317;48.880;-0.862;2023-04-28T12:04:09;100288.44;;;20.09;52.80
72359;BME280;60317;48.880;-0.862;2023-04-28T12:06:35;100285.34;;;20.13;52.97
72359;BME280;60317;48.880;-0.862;2023-04-28T12:09:16;100284.22;;;20.16;52.62
72359;BME280;60317;48.880;-0.862;2023-04-28T12:11:54;100290.16;;;20.19;52.70
72359;BME280;60317;48.880;-0.862;2023-04-28T12:14:20;100305.16;;;20.22;52.54
72359;BME280;60317;48.880;-0.862;2023-04-28T12:16:47;100303.03;;;20.25;52.42
72359;BME280;60317;48.880;-0.862;2023-04-28T12:19:13;100295.13;;;20.24;52.61
72359;BME280;60317;48.880;-0.862;2023-04-28T12:21:41;100285.22;;;20.15;52.63
72359;BME280;60317;48.880;-0.862;2023-04-28T12:24:18;100290.69;;;20.13;52.71
72359;BME280;60317;48.880;-0.862;2023-04-28T12:26:45;100290.44;;;20.16;52.74
72359;BME280;60317;48.880;-0.862;2023-04-28T12:31:57;100294.41;;;20.22;52.64
72359;BME280;60317;48.880;-0.862;2023-04-28T12:34:24;100307.53;;;20.25;52.67
72359;BME280;60317;48.880;-0.862;2023-04-28T12:36:50;100313.78;;;20.25;52.54
72359;BME280;60317;48.880;-0.862;2023-04-28T12:39:18;100305.16;;;20.22;52.49
72359;BME280;60317;48.880;-0.862;2023-04-28T12:41:45;100305.09;;;20.12;52.95
72359;BME280;60317;48.880;-0.862;2023-04-28T12:44:11;100316.41;;;20.16;52.81
72359;BME280;60317;48.880;-0.862;2023-04-28T12:46:38;100312.47;;;20.20;52.66
72359;BME280;60317;48.880;-0.862;2023-04-28T12:49:04;100308.53;;;20.24;52.72
72359;BME280;60317;48.880;-0.862;2023-04-28T12:51:31;100315.59;;;20.25;52.71
72359;BME280;60317;48.880;-0.862;2023-04-28T12:53:57;100310.22;;;20.25;52.65
72359;BME280;60317;48.880;-0.862;2023-04-28T12:56:25;100309.94;;;20.18;52.36